Time;durP1;ratioP1;P1;durP2;ratioP2;P2;SDS_P1;SDS_P2;PMS_P1;PMS_P2;Temp;Humidity;BMP_temperature;BMP_pressure;BME280_temperature;BME280_humidity;BME280_pressure;Samples;Min_cycle;Max_cycle;Signal;HPM_P1;HPM_P2
2021/07/23 00:00:15;;;;;;;2.53;2.30;;;;;22.20;101978.00;;;;5069315;28;20187;-77
2021/07/23 00:02:42;;;;;;;2.85;2.47;;;;;22.20;101983.00;;;;5075966;28;20203;-77
2021/07/23 00:05:11;;;;;;;3.22;2.45;;;;;22.20;101983.00;;;;5083291;28;20553;-77
2021/07/23 00:07:38;;;;;;;2.95;2.50;;;;;22.20;101981.00;;;;5085448;28;20210;-77
2021/07/23 00:10:07;;;;;;;4.47;2.85;;;;;22.10;101986.00;;;;5091879;28;20225;-77
2021/07/23 00:12:35;;;;;;;3.20;2.60;;;;;22.10;101985.00;;;;5081703;28;20206;-78
2021/07/23 00:15:02;;;;;;;3.03;2.30;;;;;22.10;101987.00;;;;5072567;28;20628;-77
2021/07/23 00:17:29;;;;;;;4.32;3.42;;;;;22.10;101978.00;;;;5071734;28;20215;-77
2021/07/23 00:19:56;;;;;;;3.33;2.78;;;;;22.10;101979.00;;;;5071685;28;20587;-77
2021/07/23 00:22:24;;;;;;;3.25;2.33;;;;;22.00;101983.00;;;;5084534;28;20198;-77
2021/07/23 00:24:51;;;;;;;4.63;3.05;;;;;22.00;101983.00;;;;5086018;28;20194;-77
2021/07/23 00:27:19;;;;;;;4.75;3.30;;;;;22.00;101980.00;;;;5077615;28;20211;-77
2021/07/23 00:29:46;;;;;;;4.05;3.30;;;;;22.00;101984.00;;;;5083332;28;20198;-77
2021/07/23 00:32:14;;;;;;;4.25;2.75;;;;;22.00;101981.00;;;;5083523;28;20202;-77
2021/07/23 00:34:41;;;;;;;6.22;2.83;;;;;22.00;101978.00;;;;5087916;28;20190;-77
2021/07/23 00:37:08;;;;;;;3.70;2.60;;;;;22.00;101972.00;;;;5080155;28;20587;-77
2021/07/23 00:39:35;;;;;;;6.55;2.88;;;;;22.00;101973.00;;;;5071797;28;20214;-77
2021/07/23 00:42:03;;;;;;;4.28;2.78;;;;;22.00;101967.00;;;;5071505;28;20187;-77
2021/07/23 00:44:31;;;;;;;4.00;2.90;;;;;22.00;101973.00;;;;5071396;28;20206;-77
2021/07/23 00:46:59;;;;;;;3.10;2.45;;;;;22.00;101973.00;;;;5073060;28;20207;-77
2021/07/23 00:49:26;;;;;;;3.20;2.90;;;;;22.00;101962.00;;;;5079095;28;20691;-77
2021/07/23 00:51:53;;;;;;;3.20;2.45;;;;;21.90;101963.00;;;;5082071;28;20548;-77
2021/07/23 00:54:21;;;;;;;2.70;2.17;;;;;21.90;101965.00;;;;5081466;28;20194;-77
2021/07/23 00:56:48;;;;;;;3.80;3.08;;;;;21.90;101962.00;;;;5073210;28;20191;-77
2021/07/23 00:59:16;;;;;;;3.75;2.95;;;;;21.90;101965.00;;;;5089681;28;20221;-77
2021/07/23 01:01:45;;;;;;;3.67;2.63;;;;;21.90;101965.00;;;;5092326;28;20194;-77
2021/07/23 01:04:13;;;;;;;5.20;2.75;;;;;21.90;101959.00;;;;5104146;28;20202;-77
2021/07/23 01:06:40;;;;;;;4.25;2.47;;;;;21.90;101964.00;;;;5078461;28;20190;-77
2021/07/23 01:09:08;;;;;;;4.88;3.13;;;;;21.80;101966.00;;;;5070870;28;20207;-77
2021/07/23 01:11:37;;;;;;;3.70;2.55;;;;;21.80;101963.00;;;;5075576;28;20482;-77
2021/07/23 01:14:05;;;;;;;3.25;2.58;;;;;21.80;101961.00;;;;5077932;28;20212;-77
2021/07/23 01:16:33;;;;;;;4.80;3.33;;;;;21.80;101969.00;;;;5090720;28;20197;-77
2021/07/23 01:19:02;;;;;;;3.78;2.72;;;;;21.80;101966.00;;;;5082920;28;20233;-77
2021/07/23 01:21:30;;;;;;;4.60;3.05;;;;;21.80;101969.00;;;;5071407;28;20290;-77
2021/07/23 01:23:59;;;;;;;4.10;2.90;;;;;21.70;101964.00;;;;5071200;28;20196;-77
2021/07/23 01:26:27;;;;;;;4.75;2.55;;;;;21.70;101971.00;;;;5088235;28;20210;-76
2021/07/23 01:28:54;;;;;;;4.97;2.83;;;;;21.70;101972.00;;;;5081940;28;20222;-77
2021/07/23 01:31:21;;;;;;;3.25;2.55;;;;;21.70;101967.00;;;;5090427;28;20197;-77
2021/07/23 01:33:49;;;;;;;3.88;2.58;;;;;21.70;101973.00;;;;5075189;28;20680;-77
2021/07/23 01:36:16;;;;;;;4.22;3.10;;;;;21.60;101964.00;;;;5070183;28;20262;-77
2021/07/23 01:38:46;;;;;;;4.70;2.88;;;;;21.60;101963.00;;;;5080122;28;20226;-77
2021/07/23 01:41:15;;;;;;;3.47;2.80;;;;;21.60;101967.00;;;;5069534;28;20230;-77
2021/07/23 01:43:43;;;;;;;3.50;2.80;;;;;21.60;101963.00;;;;5073840;28;20190;-77
2021/07/23 01:46:10;;;;;;;3.75;2.67;;;;;21.50;101958.00;;;;5086954;28;20251;-77
2021/07/23 01:48:37;;;;;;;4.10;3.08;;;;;21.50;101950.00;;;;5069399;28;20674;-77
2021/07/23 01:51:04;;;;;;;3.58;2.97;;;;;21.50;101957.00;;;;5089006;28;20194;-77
2021/07/23 01:53:31;;;;;;;3.30;2.85;;;;;21.50;101958.00;;;;5089309;28;20202;-77
2021/07/23 01:55:59;;;;;;;4.68;3.10;;;;;21.40;101952.00;;;;5088804;28;20661;-78
2021/07/23 01:58:30;;;;;;;4.13;2.88;;;;;21.40;101958.00;;;;5073334;28;20218;-77
2021/07/23 02:00:58;;;;;;;3.53;2.83;;;;;21.40;101945.00;;;;5078306;28;20235;-77
2021/07/23 02:03:25;;;;;;;5.13;2.72;;;;;21.40;101951.00;;;;5099522;28;20250;-77
2021/07/23 02:05:52;;;;;;;4.00;3.15;;;;;21.40;101950.00;;;;5071062;28;20214;-77
2021/07/23 02:08:20;;;;;;;3.78;2.92;;;;;21.40;101954.00;;;;5068935;28;20190;-77
2021/07/23 02:10:47;;;;;;;4.88;2.85;;;;;21.30;101954.00;;;;5069155;28;20653;-77
2021/07/23 02:13:14;;;;;;;3.80;3.03;;;;;21.30;101954.00;;;;5083951;28;20205;-77
2021/07/23 02:15:44;;;;;;;5.63;2.72;;;;;21.30;101945.00;;;;5088378;28;20209;-77
2021/07/23 02:18:11;;;;;;;3.83;3.22;;;;;21.30;101957.00;;;;5087219;28;20222;-77
2021/07/23 02:20:38;;;;;;;4.13;3.22;;;;;21.30;101954.00;;;;5084123;28;20198;-77
2021/07/23 02:23:06;;;;;;;4.45;2.97;;;;;21.20;101953.00;;;;5074246;28;20596;-77
2021/07/23 02:25:33;;;;;;;4.75;3.00;;;;;21.20;101953.00;;;;5090939;28;20198;-77
2021/07/23 02:28:01;;;;;;;3.30;2.97;;;;;21.20;101949.00;;;;5103321;28;20676;-77
2021/07/23 02:30:28;;;;;;;3.10;2.60;;;;;21.20;101949.00;;;;5069702;28;20193;-77
2021/07/23 02:32:56;;;;;;;4.85;2.72;;;;;21.10;101953.00;;;;5082616;28;20209;-77
2021/07/23 02:35:24;;;;;;;4.80;3.00;;;;;21.10;101944.00;;;;5087659;28;20198;-77
2021/07/23 02:37:51;;;;;;;4.55;3.03;;;;;21.10;101941.00;;;;5074853;28;20222;-77
2021/07/23 02:40:18;;;;;;;4.22;3.05;;;;;21.10;101940.00;;;;5086166;28;20202;-77
2021/07/23 02:42:45;;;;;;;3.22;2.58;;;;;21.10;101944.00;;;;5074205;28;20191;-77
2021/07/23 02:45:13;;;;;;;3.08;2.75;;;;;21.10;101945.00;;;;5070362;28;20195;-77
2021/07/23 02:47:40;;;;;;;4.65;2.85;;;;;21.00;101946.00;;;;5068310;28;20202;-77
2021/07/23 02:50:09;;;;;;;3.35;2.70;;;;;21.00;101944.00;;;;5081658;28;20202;-77
2021/07/23 02:52:36;;;;;;;2.33;2.08;;;;;21.00;101942.00;;;;5079754;28;20804;-77
2021/07/23 02:55:05;;;;;;;2.75;2.45;;;;;21.00;101943.00;;;;5075687;28;21720;-77
2021/07/23 02:57:32;;;;;;;3.13;2.50;;;;;21.00;101937.00;;;;5081434;28;20215;-77
2021/07/23 03:00:00;;;;;;;3.70;2.58;;;;;21.00;101939.00;;;;5069759;28;20199;-77
2021/07/23 03:02:27;;;;;;;3.28;2.67;;;;;20.90;101944.00;;;;5077067;28;20243;-77
2021/07/23 03:04:54;;;;;;;3.72;2.50;;;;;20.90;101931.00;;;;5088394;28;20194;-77
2021/07/23 03:07:23;;;;;;;4.28;2.55;;;;;20.90;101933.00;;;;5082043;28;20199;-77
2021/07/23 03:09:50;;;;;;;3.08;2.70;;;;;20.90;101929.00;;;;5073760;28;20234;-77
2021/07/23 03:12:17;;;;;;;3.28;2.75;;;;;20.80;101929.00;;;;5068731;28;20198;-77
2021/07/23 03:14:44;;;;;;;3.05;2.55;;;;;20.80;101924.00;;;;5069445;28;20198;-77
2021/07/23 03:17:11;;;;;;;3.75;2.58;;;;;20.80;101911.00;;;;5069981;28;20660;-77
2021/07/23 03:19:39;;;;;;;3.10;2.25;;;;;20.70;101914.00;;;;5084798;28;20239;-77
2021/07/23 03:22:06;;;;;;;3.10;2.65;;;;;20.70;101913.00;;;;5068627;28;20187;-77
2021/07/23 03:24:35;;;;;;;4.63;2.65;;;;;20.70;101918.00;;;;5068615;28;20202;-77
2021/07/23 03:27:03;;;;;;;3.60;2.78;;;;;20.70;101913.00;;;;5068000;28;20210;-76
2021/07/23 03:29:30;;;;;;;5.18;2.67;;;;;20.70;101905.00;;;;5069471;28;20205;-77
2021/07/23 03:31:57;;;;;;;4.22;2.67;;;;;20.60;101908.00;;;;5067650;28;20655;-77
2021/07/23 03:34:25;;;;;;;3.70;2.72;;;;;20.60;101897.00;;;;5087618;28;20567;-77
2021/07/23 03:36:52;;;;;;;4.22;2.80;;;;;20.60;101884.00;;;;5086402;28;20218;-77
2021/07/23 03:39:19;;;;;;;3.38;2.45;;;;;20.60;101891.00;;;;5074644;28;20218;-77
2021/07/23 03:41:47;;;;;;;6.28;3.15;;;;;20.60;101892.00;;;;5084981;28;20683;-77
2021/07/23 03:44:15;;;;;;;5.40;3.55;;;;;20.60;101891.00;;;;5081945;28;20205;-77
2021/07/23 03:46:42;;;;;;;3.83;2.92;;;;;20.50;101885.00;;;;5092609;28;20666;-77
2021/07/23 03:49:09;;;;;;;5.00;3.47;;;;;20.50;101882.00;;;;5086403;28;20202;-77
2021/07/23 03:51:36;;;;;;;6.60;3.28;;;;;20.60;101890.00;;;;5090115;28;20194;-77
2021/07/23 03:54:03;;;;;;;4.10;2.97;;;;;20.60;101889.00;;;;5076058;28;20691;-77
2021/07/23 03:56:31;;;;;;;3.63;2.80;;;;;20.50;101887.00;;;;5075483;28;20198;-77
2021/07/23 03:59:00;;;;;;;5.50;3.25;;;;;20.50;101891.00;;;;5089315;28;20271;-76
2021/07/23 04:01:27;;;;;;;3.20;2.85;;;;;20.60;101884.00;;;;5088622;28;20214;-76
2021/07/23 04:03:54;;;;;;;4.97;3.35;;;;;20.60;101888.00;;;;5071234;28;20229;-77
2021/07/23 04:06:22;;;;;;;15.25;2.70;;;;;20.60;101886.00;;;;5073263;28;20195;-77
2021/07/23 04:08:49;;;;;;;4.25;2.55;;;;;20.50;101890.00;;;;5076769;28;20187;-77
2021/07/23 04:11:17;;;;;;;5.18;2.80;;;;;20.60;101893.00;;;;5091797;28;20247;-77
2021/07/23 04:13:44;;;;;;;3.70;2.22;;;;;20.60;101888.00;;;;5087899;28;20567;-77
2021/07/23 04:16:13;;;;;;;3.28;2.35;;;;;20.60;101891.00;;;;5081332;28;20199;-77
2021/07/23 04:18:40;;;;;;;4.93;2.47;;;;;20.60;101885.00;;;;5071174;28;20230;-77
2021/07/23 04:21:07;;;;;;;3.80;2.50;;;;;20.60;101885.00;;;;5075725;28;20199;-77
2021/07/23 04:23:35;;;;;;;2.75;2.30;;;;;20.60;101894.00;;;;5080534;28;20206;-77
2021/07/23 04:26:03;;;;;;;4.45;2.42;;;;;20.60;101887.00;;;;5071164;28;20199;-77
2021/07/23 04:28:30;;;;;;;4.40;3.03;;;;;20.60;101885.00;;;;5073804;28;20194;-77
2021/07/23 04:30:57;;;;;;;4.50;2.92;;;;;20.70;101892.00;;;;5091411;28;20240;-77
2021/07/23 04:33:26;;;;;;;4.32;2.95;;;;;20.70;101895.00;;;;5072530;28;20198;-76
2021/07/23 04:35:53;;;;;;;3.15;2.53;;;;;20.70;101888.00;;;;5070979;28;20258;-75
2021/07/23 04:38:20;;;;;;;3.47;2.75;;;;;20.70;101891.00;;;;5071556;28;20222;-76
2021/07/23 04:40:47;;;;;;;4.13;2.72;;;;;20.70;101887.00;;;;5088163;28;20202;-76
2021/07/23 04:43:15;;;;;;;3.22;2.30;;;;;20.80;101884.00;;;;5075816;28;22297;-76
2021/07/23 04:45:42;;;;;;;3.30;2.50;;;;;20.80;101880.00;;;;5092094;28;20198;-76
2021/07/23 04:48:09;;;;;;;3.78;2.63;;;;;20.90;101879.00;;;;5084212;28;20670;-76
2021/07/23 04:50:38;;;;;;;4.22;2.75;;;;;20.90;101881.00;;;;5100610;28;20293;-76
2021/07/23 04:53:05;;;;;;;4.07;3.15;;;;;20.90;101880.00;;;;5087845;28;20203;-76
2021/07/23 04:55:34;;;;;;;3.83;3.17;;;;;21.00;101880.00;;;;5079603;28;20680;-77
2021/07/23 04:58:01;;;;;;;7.80;3.53;;;;;21.00;101877.00;;;;5080460;28;20273;-78
2021/07/23 05:00:28;;;;;;;5.85;3.78;;;;;21.00;101879.00;;;;5085987;28;20303;-76
2021/07/23 05:02:57;;;;;;;4.38;3.22;;;;;21.10;101872.00;;;;5085815;28;20202;-76
2021/07/23 05:05:25;;;;;;;5.13;3.92;;;;;21.10;101873.00;;;;5080425;28;20286;-76
2021/07/23 05:07:54;;;;;;;5.47;3.67;;;;;21.10;101880.00;;;;5081037;28;20555;-76
2021/07/23 05:10:21;;;;;;;4.78;3.40;;;;;21.20;101876.00;;;;5086852;28;20190;-76
2021/07/23 05:12:48;;;;;;;5.32;3.95;;;;;21.20;101874.00;;;;5084276;28;20194;-77
2021/07/23 05:15:15;;;;;;;5.03;3.30;;;;;21.30;101872.00;;;;5088365;28;20212;-77
2021/07/23 05:17:43;;;;;;;4.13;3.25;;;;;21.30;101878.00;;;;5088090;28;20194;-77
2021/07/23 05:20:11;;;;;;;4.90;3.47;;;;;21.30;101876.00;;;;5088670;28;20232;-76
2021/07/23 05:22:39;;;;;;;4.40;3.50;;;;;21.30;101878.00;;;;5089163;28;20193;-77
2021/07/23 05:25:09;;;;;;;4.80;3.40;;;;;21.40;101874.00;;;;5089609;28;20199;-76
2021/07/23 05:27:37;;;;;;;4.00;3.33;;;;;21.40;101871.00;;;;5086027;28;20202;-76
2021/07/23 05:30:05;;;;;;;4.70;3.30;;;;;21.50;101871.00;;;;5089560;28;20186;-77
2021/07/23 05:32:32;;;;;;;3.90;3.33;;;;;21.50;101869.00;;;;5086094;28;20201;-76
2021/07/23 05:34:59;;;;;;;4.60;3.30;;;;;21.50;101874.00;;;;5085116;28;20580;-76
2021/07/23 05:37:27;;;;;;;4.15;3.42;;;;;21.60;101876.00;;;;5085915;28;20233;-77
2021/07/23 05:39:54;;;;;;;3.70;3.22;;;;;21.60;101876.00;;;;5087198;28;20222;-77
2021/07/23 05:42:22;;;;;;;4.35;3.35;;;;;21.70;101881.00;;;;5085792;28;20202;-76
2021/07/23 05:44:50;;;;;;;4.10;3.28;;;;;21.70;101878.00;;;;5088568;28;21750;-76
2021/07/23 05:47:18;;;;;;;5.32;3.45;;;;;21.80;101882.00;;;;5088984;28;20244;-76
2021/07/23 05:49:45;;;;;;;3.85;2.92;;;;;21.80;101888.00;;;;5088437;28;20324;-76
2021/07/23 05:52:12;;;;;;;4.53;2.97;;;;;21.90;101890.00;;;;5089816;28;20196;-76
2021/07/23 05:54:40;;;;;;;3.20;2.53;;;;;21.90;101874.00;;;;5088942;28;20660;-77
2021/07/23 05:57:07;;;;;;;3.88;3.05;;;;;22.00;101878.00;;;;5086473;28;20670;-76
2021/07/23 05:59:35;;;;;;;4.80;3.05;;;;;22.00;101869.00;;;;5088112;28;20210;-76
2021/07/23 06:02:03;;;;;;;4.53;3.42;;;;;22.00;101873.00;;;;5087421;28;20201;-77
2021/07/23 06:04:30;;;;;;;4.05;2.95;;;;;22.10;101875.00;;;;5082517;28;20202;-76
2021/07/23 06:06:57;;;;;;;3.45;2.92;;;;;22.10;101873.00;;;;5068604;28;20198;-76
2021/07/23 06:09:24;;;;;;;5.65;3.70;;;;;22.20;101872.00;;;;5070072;28;20195;-76
2021/07/23 06:11:52;;;;;;;4.10;3.13;;;;;22.20;101878.00;;;;5078341;28;20197;-76
2021/07/23 06:14:19;;;;;;;3.55;3.17;;;;;22.20;101871.00;;;;5093080;28;20684;-76
2021/07/23 06:16:47;;;;;;;3.65;3.17;;;;;22.30;101872.00;;;;5070508;28;20235;-76
2021/07/23 06:19:15;;;;;;;3.38;2.80;;;;;22.30;101870.00;;;;5082432;28;20237;-76
2021/07/23 06:21:42;;;;;;;4.03;3.20;;;;;22.30;101874.00;;;;5082902;28;20190;-76
2021/07/23 06:24:09;;;;;;;3.80;3.00;;;;;22.30;101870.00;;;;5076730;28;20198;-78
2021/07/23 06:26:38;;;;;;;4.10;3.20;;;;;22.40;101865.00;;;;5075462;28;20199;-77
2021/07/23 06:29:05;;;;;;;3.70;2.67;;;;;22.40;101869.00;;;;5077864;28;20699;-77
2021/07/23 06:31:34;;;;;;;3.58;2.67;;;;;22.50;101871.00;;;;5068781;28;20214;-78
2021/07/23 06:34:02;;;;;;;3.60;3.22;;;;;22.50;101870.00;;;;5069105;28;20626;-77
2021/07/23 06:36:33;;;;;;;3.13;2.78;;;;;22.50;101863.00;;;;5074899;28;20230;-77
2021/07/23 06:39:00;;;;;;;4.93;3.33;;;;;22.60;101864.00;;;;5070648;28;20313;-77
2021/07/23 06:41:27;;;;;;;4.57;2.83;;;;;22.60;101870.00;;;;5072554;28;20225;-77
2021/07/23 06:43:54;;;;;;;3.53;3.15;;;;;22.60;101853.00;;;;5069259;28;20856;-77
2021/07/23 06:46:21;;;;;;;6.70;4.63;;;;;22.60;101863.00;;;;5068692;28;20453;-78
2021/07/23 06:48:49;;;;;;;3.58;2.97;;;;;22.70;101862.00;;;;5077763;28;20213;-79
2021/07/23 06:51:17;;;;;;;3.50;3.05;;;;;22.80;101863.00;;;;5081217;28;20199;-79
2021/07/23 06:53:44;;;;;;;5.03;2.95;;;;;22.80;101860.00;;;;5067709;28;20202;-79
2021/07/23 06:56:12;;;;;;;4.85;3.08;;;;;22.80;101870.00;;;;5069372;28;20210;-79
2021/07/23 06:58:39;;;;;;;5.05;3.33;;;;;22.80;101871.00;;;;5068854;28;20195;-79
2021/07/23 07:01:07;;;;;;;5.40;3.38;;;;;22.90;101873.00;;;;5068897;28;20195;-80
2021/07/23 07:03:34;;;;;;;3.67;2.70;;;;;22.90;101870.00;;;;5068921;28;20195;-79
2021/07/23 07:06:03;;;;;;;8.02;2.97;;;;;22.90;101862.00;;;;5068588;28;20202;-80
2021/07/23 07:08:32;;;;;;;4.75;3.47;;;;;23.00;101873.00;;;;5079176;28;20213;-79
2021/07/23 07:11:01;;;;;;;3.03;2.78;;;;;23.00;101865.00;;;;5088783;28;20198;-80
2021/07/23 07:13:28;;;;;;;4.05;3.15;;;;;23.10;101871.00;;;;5089053;28;20307;-79
2021/07/23 07:15:55;;;;;;;5.53;3.50;;;;;23.10;101874.00;;;;5088103;28;20198;-79
2021/07/23 07:18:22;;;;;;;5.05;3.05;;;;;23.10;101862.00;;;;5088518;28;20284;-79
2021/07/23 07:20:50;;;;;;;4.70;3.40;;;;;23.20;101869.00;;;;5088741;28;20225;-79
2021/07/23 07:23:17;;;;;;;5.45;3.00;;;;;23.20;101869.00;;;;5089237;28;20194;-79
2021/07/23 07:25:45;;;;;;;4.85;3.20;;;;;23.30;101863.00;;;;5076810;28;20587;-78
2021/07/23 07:28:12;;;;;;;4.53;2.85;;;;;23.30;101863.00;;;;5081321;28;20201;-79
2021/07/23 07:30:41;;;;;;;4.53;2.38;;;;;23.30;101869.00;;;;5088113;28;20206;-79
2021/07/23 07:33:08;;;;;;;4.60;2.40;;;;;23.40;101869.00;;;;5068468;28;20264;-79
2021/07/23 07:35:35;;;;;;;4.50;2.72;;;;;23.40;101877.00;;;;5083558;28;20194;-82
2021/07/23 07:38:03;;;;;;;5.05;3.45;;;;;23.50;101878.00;;;;5088497;28;20205;-79
2021/07/23 07:40:30;;;;;;;3.92;2.92;;;;;23.50;101882.00;;;;5088565;28;20703;-79
2021/07/23 07:42:58;;;;;;;3.63;2.67;;;;;23.50;101877.00;;;;5073780;28;20639;-79
2021/07/23 07:45:26;;;;;;;4.50;2.92;;;;;23.60;101870.00;;;;5068630;28;20210;-79
2021/07/23 07:47:53;;;;;;;5.63;2.92;;;;;23.60;101862.00;;;;5068129;28;20206;-80
2021/07/23 07:50:21;;;;;;;5.28;2.85;;;;;23.70;101858.00;;;;5081429;28;20202;-79
2021/07/23 07:52:48;;;;;;;3.67;2.72;;;;;23.70;101863.00;;;;5103063;28;20679;-81
2021/07/23 07:55:15;;;;;;;3.60;2.75;;;;;23.80;101870.00;;;;5108784;28;20212;-80
2021/07/23 07:57:43;;;;;;;2.90;2.55;;;;;23.80;101873.00;;;;5109242;28;20655;-80
2021/07/23 08:00:12;;;;;;;3.60;2.45;;;;;23.90;101871.00;;;;5076867;28;20719;-78
2021/07/23 08:02:39;;;;;;;4.45;2.67;;;;;23.90;101869.00;;;;5068103;28;20196;-79
2021/07/23 08:05:08;;;;;;;3.28;2.83;;;;;24.00;101871.00;;;;5084035;28;20200;-78
2021/07/23 08:07:36;;;;;;;3.83;3.05;;;;;24.00;101869.00;;;;5108374;28;20194;-80
2021/07/23 08:10:03;;;;;;;3.85;3.10;;;;;24.10;101875.00;;;;5108421;28;20200;-78
2021/07/23 08:12:31;;;;;;;4.32;3.20;;;;;24.10;101863.00;;;;5109284;28;20210;-78
2021/07/23 08:14:58;;;;;;;5.80;3.03;;;;;24.20;101861.00;;;;5108175;28;20292;-78
2021/07/23 08:17:28;;;;;;;3.55;3.10;;;;;24.20;101869.00;;;;5072478;28;20619;-79
2021/07/23 08:19:57;;;;;;;5.22;3.22;;;;;24.30;101872.00;;;;5067453;28;20888;-79
2021/07/23 08:22:24;;;;;;;4.60;2.80;;;;;24.30;101874.00;;;;5068264;28;20202;-79
2021/07/23 08:24:52;;;;;;;4.25;3.28;;;;;24.30;101876.00;;;;5067537;28;20203;-79
2021/07/23 08:27:21;;;;;;;5.20;3.45;;;;;24.30;101871.00;;;;5068507;28;20293;-80
2021/07/23 08:29:48;;;;;;;4.93;3.47;;;;;24.40;101869.00;;;;5069287;28;20679;-81
2021/07/23 08:32:16;;;;;;;4.22;3.28;;;;;24.40;101871.00;;;;5071875;28;20285;-79
2021/07/23 08:34:44;;;;;;;5.05;3.10;;;;;24.30;101869.00;;;;5092029;28;20194;-80
2021/07/23 08:37:12;;;;;;;3.75;3.25;;;;;24.40;101869.00;;;;5091379;28;20563;-79
2021/07/23 08:39:39;;;;;;;4.07;3.33;;;;;24.40;101863.00;;;;5091611;28;20226;-80
2021/07/23 08:42:29;;;;;;;10.95;4.00;;;;;24.30;101864.00;;;;5091607;28;20255;-80
2021/07/23 08:44:58;;;;;;;3.92;3.53;;;;;24.50;101862.00;;;;5091802;28;20286;-79
2021/07/23 08:47:25;;;;;;;4.00;3.00;;;;;24.50;101863.00;;;;5091239;28;20207;-79
2021/07/23 08:49:55;;;;;;;6.15;3.38;;;;;24.50;101856.00;;;;5089661;28;20251;-78
2021/07/23 08:52:41;;;;;;;4.13;2.85;;;;;24.50;101859.00;;;;5091649;28;20202;-78
2021/07/23 08:55:10;;;;;;;7.35;3.50;;;;;24.60;101856.00;;;;5090729;28;20198;-80
2021/07/23 08:57:37;;;;;;;4.68;3.13;;;;;24.60;101864.00;;;;5091740;28;20198;-80
2021/07/23 09:00:09;;;;;;;4.07;3.00;;;;;24.60;101864.00;;;;5091285;28;20229;-80
2021/07/23 09:02:53;;;;;;;5.03;3.03;;;;;24.60;101872.00;;;;5091455;28;20575;-79
2021/07/23 09:05:25;;;;;;;4.20;3.50;;;;;24.70;101862.00;;;;5091448;28;20737;-81
2021/07/23 09:07:52;;;;;;;4.20;3.15;;;;;24.70;101865.00;;;;5081795;28;20199;-80
2021/07/23 09:10:25;;;;;;;4.43;2.80;;;;;24.70;101863.00;;;;5071347;28;20199;-80
2021/07/23 09:12:54;;;;;;;4.60;2.83;;;;;24.80;101859.00;;;;5069955;28;20487;-81
2021/07/23 09:15:27;;;;;;;3.17;2.30;;;;;24.80;101856.00;;;;5070871;28;20210;-80
2021/07/23 09:17:55;;;;;;;4.72;2.17;;;;;24.80;101853.00;;;;5070898;28;20685;-81
2021/07/23 09:20:26;;;;;;;2.90;2.55;;;;;24.80;101849.00;;;;5070587;28;20805;-81
2021/07/23 09:22:55;;;;;;;3.47;2.53;;;;;24.90;101839.00;;;;5070399;28;20202;-79
2021/07/23 09:25:42;;;;;;;3.53;2.60;;;;;24.90;101837.00;;;;5070949;28;20206;-80
2021/07/23 09:28:32;;;;;;;3.25;2.42;;;;;24.90;101833.00;;;;5070840;28;20673;-81
2021/07/23 09:31:01;;;;;;;3.92;2.38;;;;;25.10;101830.00;;;;5070410;28;20191;-81
2021/07/23 09:33:31;;;;;;;3.55;2.97;;;;;25.10;101826.00;;;;5070611;28;20670;-81
2021/07/23 09:36:02;;;;;;;3.85;2.63;;;;;25.10;101837.00;;;;5089130;28;20603;-80
2021/07/23 09:38:35;;;;;;;3.17;2.63;;;;;25.10;101836.00;;;;5090682;28;20202;-81
2021/07/23 09:41:03;;;;;;;4.07;3.40;;;;;25.20;101838.00;;;;5083204;28;20270;-80
2021/07/23 09:43:32;;;;;;;6.45;3.28;;;;;25.20;101833.00;;;;5070480;28;20195;-81
2021/07/23 09:46:24;;;;;;;3.45;2.72;;;;;25.10;101829.00;;;;5070102;28;20202;-81
2021/07/23 09:48:53;;;;;;;3.35;2.63;;;;;25.30;101828.00;;;;5081662;28;20202;-81
2021/07/23 09:51:24;;;;;;;3.97;2.80;;;;;25.30;101826.00;;;;5073390;28;20698;-82
2021/07/23 09:53:51;;;;;;;4.70;3.17;;;;;25.40;101819.00;;;;5077242;28;20194;-80
2021/07/23 09:56:19;;;;;;;4.13;2.95;;;;;25.40;101813.00;;;;5080522;28;20241;-81
2021/07/23 09:58:49;;;;;;;4.22;3.05;;;;;25.40;101812.00;;;;5078824;28;20198;-80
2021/07/23 10:01:22;;;;;;;4.43;2.80;;;;;25.50;101811.00;;;;5090013;28;20320;-81
2021/07/23 10:03:53;;;;;;;3.65;3.05;;;;;25.50;101811.00;;;;5091333;28;20206;-81
2021/07/23 10:06:28;;;;;;;4.03;3.17;;;;;25.60;101808.00;;;;5091143;28;20210;-80
2021/07/23 10:08:57;;;;;;;4.53;3.08;;;;;25.70;101803.00;;;;5088373;28;20716;-78
2021/07/23 10:11:25;;;;;;;4.15;3.03;;;;;25.70;101797.00;;;;5090200;28;20194;-78
2021/07/23 10:13:56;;;;;;;3.88;2.38;;;;;25.80;101799.00;;;;5086242;28;20663;-78
2021/07/23 10:16:24;;;;;;;5.05;3.10;;;;;25.80;101802.00;;;;5070796;28;20203;-80
2021/07/23 10:18:52;;;;;;;5.38;3.05;;;;;25.80;101792.00;;;;5069225;28;20223;-80
2021/07/23 10:21:19;;;;;;;5.15;2.80;;;;;25.90;101791.00;;;;5080452;28;20607;-77
2021/07/23 10:23:48;;;;;;;6.25;3.45;;;;;25.90;101789.00;;;;5076833;28;20190;-78
2021/07/23 10:26:17;;;;;;;6.45;2.92;;;;;26.00;101792.00;;;;5085107;28;20202;-77
2021/07/23 10:28:57;;;;;;;4.85;2.55;;;;;25.90;101791.00;;;;5082225;28;20206;-79
2021/07/23 10:31:44;;;;;;;4.88;3.00;;;;;25.90;101791.00;;;;5081309;28;20201;-81
2021/07/23 10:34:11;;;;;;;4.90;2.85;;;;;26.00;101794.00;;;;5076870;28;20260;-79
2021/07/23 10:36:41;;;;;;;4.55;3.08;;;;;26.00;101798.00;;;;5072803;28;20222;-79
2021/07/23 10:39:11;;;;;;;4.35;3.22;;;;;26.00;101801.00;;;;5069800;28;20559;-80
2021/07/23 10:41:39;;;;;;;4.75;2.65;;;;;26.10;101802.00;;;;5088601;28;20225;-81
2021/07/23 10:44:11;;;;;;;5.03;3.03;;;;;26.00;101799.00;;;;5100828;28;20195;-79
2021/07/23 10:46:58;;;;;;;5.63;3.30;;;;;25.90;101803.00;;;;5088499;28;20194;-81
2021/07/23 10:49:47;;;;;;;5.93;3.30;;;;;25.90;101794.00;;;;5074379;28;20665;-79
2021/07/23 10:52:28;;;;;;;6.28;3.33;;;;;25.90;101788.00;;;;5100931;28;20225;-79
2021/07/23 10:55:21;;;;;;;4.38;2.78;;;;;25.90;101786.00;;;;5100921;28;20230;-79
2021/07/23 10:58:26;;;;;;;3.22;2.10;;;;;25.90;101788.00;;;;5065682;28;20202;-78
2021/07/23 11:00:55;;;;;;;5.40;2.67;;;;;26.00;101783.00;;;;5068449;28;20258;-77
2021/07/23 11:03:58;;;;;;;4.60;2.85;;;;;25.90;101782.00;;;;5069856;28;20207;-77
2021/07/23 11:06:28;;;;;;;3.35;2.85;;;;;26.00;101779.00;;;;5069238;28;20191;-77
2021/07/23 11:09:02;;;;;;;4.15;3.25;;;;;26.00;101778.00;;;;5083877;28;20210;-77
2021/07/23 11:11:31;;;;;;;5.03;2.97;;;;;26.00;101778.00;;;;5082551;28;20579;-78
2021/07/23 11:14:14;;;;;;;5.53;3.33;;;;;25.90;101771.00;;;;5070272;28;20552;-80
2021/07/23 11:16:41;;;;;;;4.10;3.38;;;;;26.10;101772.00;;;;5084318;28;20206;-77
2021/07/23 11:19:16;;;;;;;5.68;3.55;;;;;26.10;101762.00;;;;5081228;28;20262;-78
2021/07/23 11:21:43;;;;;;;5.35;3.35;;;;;26.10;101768.00;;;;5067829;28;20234;-77
2021/07/23 11:24:12;;;;;;;4.28;3.38;;;;;26.10;101763.00;;;;5076155;28;20202;-76
2021/07/23 11:26:48;;;;;;;5.90;3.72;;;;;26.10;101754.00;;;;5085136;28;20197;-78
2021/07/23 11:29:16;;;;;;;8.05;4.10;;;;;26.20;101747.00;;;;5076963;28;20198;-78
2021/07/23 11:31:44;;;;;;;5.20;3.72;;;;;26.20;101743.00;;;;5067914;28;20543;-79
2021/07/23 11:34:36;;;;;;;6.40;3.63;;;;;26.20;101750.00;;;;5080406;28;20213;-77
2021/07/23 11:37:14;;;;;;;6.28;3.72;;;;;26.30;101742.00;;;;5076066;28;20226;-78
2021/07/23 11:39:50;;;;;;;4.30;3.65;;;;;26.30;101741.00;;;;5074805;28;20235;-77
2021/07/23 11:42:19;;;;;;;5.82;3.67;;;;;26.40;101737.00;;;;5067854;28;20252;-77
2021/07/23 11:44:55;;;;;;;5.47;3.88;;;;;26.40;101741.00;;;;5067475;28;20194;-75
2021/07/23 11:47:33;;;;;;;5.60;3.08;;;;;26.40;101728.00;;;;5067697;28;20198;-76
2021/07/23 11:50:02;;;;;;;4.22;3.33;;;;;26.50;101733.00;;;;5071468;28;20702;-75
2021/07/23 11:52:30;;;;;;;3.78;3.22;;;;;26.50;101731.00;;;;5073673;28;20655;-78
2021/07/23 11:54:59;;;;;;;4.93;3.63;;;;;26.50;101721.00;;;;5087374;28;20611;-76
2021/07/23 11:57:29;;;;;;;6.72;3.72;;;;;26.50;101718.00;;;;5085222;28;20292;-75
2021/07/23 11:59:56;;;;;;;5.00;3.80;;;;;26.60;101713.00;;;;5085222;28;20201;-75
2021/07/23 12:02:26;;;;;;;4.40;3.40;;;;;26.60;101710.00;;;;5086231;28;20225;-75
2021/07/23 12:05:08;;;;;;;4.10;3.25;;;;;26.50;101703.00;;;;5105217;28;20979;-76
2021/07/23 12:07:36;;;;;;;4.32;2.67;;;;;26.70;101707.00;;;;5110545;28;20202;-80
2021/07/23 12:10:05;;;;;;;7.13;3.58;;;;;26.70;101700.00;;;;5109661;28;20197;-77
2021/07/23 12:12:34;;;;;;;7.30;3.30;;;;;26.70;101689.00;;;;5111844;28;20208;-78
2021/07/23 12:15:07;;;;;;;5.25;3.85;;;;;26.70;101687.00;;;;5081631;28;20203;-78
2021/07/23 12:17:36;;;;;;;6.13;3.03;;;;;26.80;101686.00;;;;5071408;28;20202;-77